createdAt,value
2018-03-29T00:08:13.890Z,6.70
2018-03-29T00:18:17.137Z,5.47
2018-03-29T00:28:20.389Z,5.83
2018-03-29T00:38:22.878Z,5.53
2018-03-29T00:48:25.361Z,5.70
2018-03-29T00:58:27.846Z,4.93
2018-03-29T01:08:32.911Z,5.60
2018-03-29T01:18:35.390Z,5.20
2018-03-29T01:28:38.292Z,6.07
2018-03-29T01:38:41.536Z,6.60
2018-03-29T01:48:44.785Z,8.17
2018-03-29T01:58:48.034Z,9.20
2018-03-29T02:08:50.521Z,14.60
2018-03-29T02:18:53.012Z,11.63
2018-03-29T02:28:55.506Z,14.20
2018-03-29T02:38:58.770Z,12.17
2018-03-29T02:49:01.250Z,10.67
2018-03-29T02:59:03.728Z,10.63
2018-03-29T03:09:06.218Z,8.73
2018-03-29T03:19:09.466Z,8.70
2018-03-29T03:29:12.709Z,9.17
2018-03-29T03:39:15.962Z,9.30
2018-03-29T03:49:18.454Z,10.97
2018-03-29T03:59:20.937Z,13.63
2018-03-29T04:09:23.426Z,15.20
2018-03-29T04:19:26.678Z,17.37
2018-03-29T04:29:29.945Z,18.33
2018-03-29T04:39:32.431Z,16.53
2018-03-29T04:49:34.924Z,13.93
2018-03-29T04:59:37.414Z,17.90
2018-03-29T05:09:39.902Z,15.77
2018-03-29T05:19:42.393Z,15.97
2018-03-29T05:29:44.881Z,16.23
2018-03-29T05:39:47.368Z,19.17
2018-03-29T05:49:49.863Z,21.50
2018-03-29T05:59:52.340Z,26.03
2018-03-29T06:09:55.594Z,24.80
2018-03-29T06:19:59.025Z,19.00
2018-03-29T06:30:01.645Z,26.07
2018-03-29T06:40:04.139Z,30.63
2018-03-29T06:50:06.626Z,24.10
2018-03-29T07:00:09.882Z,24.70
2018-03-29T07:10:12.549Z,26.17
2018-03-29T07:20:15.038Z,26.03
2018-03-29T07:30:17.525Z,26.57
2018-03-29T07:40:20.008Z,25.70
2018-03-29T07:50:22.506Z,27.30
2018-03-29T08:00:25.046Z,27.23
2018-03-29T08:10:27.476Z,30.63
2018-03-29T08:20:29.961Z,32.60
2018-03-29T08:30:32.650Z,34.20
2018-03-29T08:40:35.134Z,44.20
2018-03-29T08:50:38.389Z,40.20
2018-03-29T09:00:40.877Z,42.10
2018-03-29T09:10:43.376Z,44.50
2018-03-29T09:20:45.860Z,39.20
2018-03-29T09:30:48.350Z,28.17
2018-03-29T09:40:50.829Z,20.90
2018-03-29T09:50:54.098Z,14.20
2018-03-29T10:01:02.337Z,15.47
2018-03-29T10:11:04.833Z,25.03
2018-03-29T10:21:08.092Z,20.83
2018-03-29T10:31:10.586Z,22.70
2018-03-29T10:41:13.123Z,26.30
2018-03-29T10:51:15.572Z,29.37
2018-03-29T11:01:18.068Z,33.70
2018-03-29T11:11:21.329Z,36.30
2018-03-29T11:21:23.830Z,38.40
2018-03-29T11:31:26.518Z,30.50
2018-03-29T11:41:29.017Z,34.63
2018-03-29T11:51:31.617Z,27.23
2018-03-29T12:01:34.106Z,22.13
2018-03-29T12:11:36.593Z,17.80
2018-03-29T12:21:39.082Z,17.20
2018-03-29T12:31:41.863Z,19.63
2018-03-29T12:41:44.353Z,20.07
2018-03-29T12:51:46.835Z,19.27
2018-03-29T13:01:49.325Z,28.37
2018-03-29T13:11:52.586Z,24.47
2018-03-29T13:21:55.081Z,25.43
2018-03-29T13:31:58.333Z,19.20
2018-03-29T13:42:01.593Z,20.40
2018-03-29T13:52:04.082Z,16.00
2018-03-29T14:02:06.590Z,16.53
2018-03-29T14:12:09.077Z,16.00
2018-03-29T14:22:11.569Z,16.70
2018-03-29T14:32:14.057Z,11.90
2018-03-29T14:42:16.594Z,10.73
2018-03-29T14:52:19.076Z,10.93
2018-03-29T15:02:21.792Z,6.57
2018-03-29T15:12:25.042Z,7.17
2018-03-29T15:22:27.525Z,7.33
2018-03-29T15:32:30.013Z,5.87
2018-03-29T15:42:32.494Z,6.70
2018-03-29T15:52:34.980Z,7.10
2018-03-29T16:02:37.477Z,6.70
2018-03-29T16:12:39.997Z,6.00
2018-03-29T16:22:42.433Z,6.07
2018-03-29T16:32:44.920Z,5.43
2018-03-29T16:42:47.405Z,7.57
2018-03-29T16:52:49.885Z,6.57
2018-03-29T17:02:53.137Z,6.50
2018-03-29T17:12:56.385Z,7.43
2018-03-29T17:22:58.874Z,7.60
2018-03-29T17:33:01.460Z,7.87
2018-03-29T17:43:03.941Z,7.70
2018-03-29T17:53:07.189Z,7.50
2018-03-29T18:03:10.437Z,7.03
2018-03-29T18:13:13.694Z,7.73
2018-03-29T18:23:16.940Z,8.80
2018-03-29T18:33:19.429Z,7.40
2018-03-29T18:43:21.914Z,8.50
2018-03-29T18:53:24.401Z,9.53
2018-03-29T19:03:26.877Z,9.03
2018-03-29T19:13:29.358Z,7.93
2018-03-29T19:23:32.618Z,10.37
2018-03-29T19:33:35.106Z,7.40
2018-03-29T19:43:37.589Z,9.03
2018-03-29T19:53:40.100Z,8.13
2018-03-29T20:03:43.389Z,9.80
2018-03-29T20:13:45.869Z,9.00
2018-03-29T20:23:48.357Z,10.10
2018-03-29T20:33:50.834Z,9.23
2018-03-29T20:43:53.313Z,9.00
2018-03-29T20:53:55.807Z,8.80
2018-03-29T21:03:58.276Z,9.80
2018-03-29T21:14:01.525Z,9.57
2018-03-29T21:24:04.013Z,12.50
2018-03-29T21:34:06.497Z,9.60
2018-03-29T21:44:08.976Z,9.43
2018-03-29T21:54:11.465Z,9.53
2018-03-29T22:04:14.709Z,9.60
2018-03-29T22:14:17.194Z,10.53
2018-03-29T22:24:19.685Z,10.43
2018-03-29T22:34:22.165Z,9.37
2018-03-29T22:44:24.648Z,9.53
2018-03-29T22:54:27.130Z,10.60
2018-03-29T23:04:29.617Z,10.60
2018-03-29T23:14:32.861Z,9.53
2018-03-29T23:24:36.104Z,9.93
2018-03-29T23:34:39.357Z,9.50
2018-03-29T23:44:41.837Z,9.70
2018-03-29T23:54:44.321Z,8.50
